Time;durP1;ratioP1;P1;durP2;ratioP2;P2;SDS_P1;SDS_P2;PMS_P1;PMS_P2;Temp;Humidity;BMP_temperature;BMP_pressure;BME280_temperature;BME280_humidity;BME280_pressure;Samples;Min_cycle;Max_cycle;Signal;HPM_P1;HPM_P2
2021/01/23 00:00:23;;;;;;;0.57;0.57;;;;;;;0.28;90.33;94475.72;5092214;28;20044;-72
2021/01/23 00:02:49;;;;;;;0.60;0.60;;;;;;;0.28;90.21;94478.28;5092472;28;20514;-72
2021/01/23 00:05:15;;;;;;;1.80;0.75;;;;;;;0.29;90.62;94482.44;5078738;28;20055;-72
2021/01/23 00:07:42;;;;;;;0.65;0.65;;;;;;;0.27;90.48;94487.78;5075181;28;20051;-72
2021/01/23 00:10:08;;;;;;;0.68;0.68;;;;;;;0.34;90.70;94495.53;5093063;28;20032;-72
2021/01/23 00:12:35;;;;;;;0.45;0.45;;;;;;;0.43;90.78;94507.19;5091996;28;20055;-72
2021/01/23 00:15:01;;;;;;;0.30;0.30;;;;;;;0.49;90.57;94501.22;5092858;28;20425;-72
2021/01/23 00:17:27;;;;;;;0.65;0.65;;;;;;;0.57;90.32;94500.22;5092690;28;20032;-72
2021/01/23 00:19:53;;;;;;;0.40;0.40;;;;;;;0.60;89.99;94513.47;5093133;28;20043;-72
2021/01/23 00:22:20;;;;;;;0.32;0.32;;;;;;;0.65;90.11;94506.94;5074378;28;20060;-72
2021/01/23 00:24:46;;;;;;;0.52;0.50;;;;;;;0.71;89.71;94513.84;5091652;28;20051;-72
2021/01/23 00:27:12;;;;;;;0.30;0.30;;;;;;;0.72;89.70;94518.81;5091815;28;20063;-72
2021/01/23 00:29:39;;;;;;;0.35;0.35;;;;;;;0.75;89.49;94528.72;5094479;28;20048;-72
2021/01/23 00:32:05;;;;;;;0.40;0.40;;;;;;;0.83;89.56;94522.53;5095715;28;20044;-72
2021/01/23 00:34:31;;;;;;;0.30;0.30;;;;;;;0.86;89.22;94531.66;5095356;28;20063;-72
2021/01/23 00:36:57;;;;;;;0.40;0.40;;;;;;;0.89;89.21;94533.84;5096232;28;20051;-72
2021/01/23 00:39:24;;;;;;;0.38;0.38;;;;;;;0.88;89.10;94535.59;5096353;28;20028;-72
2021/01/23 00:41:50;;;;;;;0.88;0.50;;;;;;;0.88;89.02;94548.50;5095399;28;20055;-72
2021/01/23 00:44:16;;;;;;;0.50;0.38;;;;;;;0.89;89.13;94544.94;5095814;28;20047;-72
2021/01/23 00:46:42;;;;;;;0.30;0.30;;;;;;;0.89;89.04;94544.94;5095271;28;20052;-72
2021/01/23 00:49:08;;;;;;;0.30;0.30;;;;;;;0.88;88.86;94545.94;5095938;28;20048;-72
2021/01/23 00:51:35;;;;;;;0.20;0.20;;;;;;;0.84;88.74;94544.78;5095284;28;20051;-72
2021/01/23 00:54:01;;;;;;;0.40;0.40;;;;;;;0.79;88.70;94558.28;5096068;28;20475;-72
2021/01/23 00:56:27;;;;;;;0.30;0.30;;;;;;;0.77;88.85;94556.91;5096707;28;20040;-72
2021/01/23 00:58:53;;;;;;;1.65;0.40;;;;;;;0.72;88.74;94567.03;5095876;28;20047;-72
2021/01/23 01:01:19;;;;;;;0.43;0.40;;;;;;;0.67;88.89;94572.78;5096291;28;20044;-72
2021/01/23 01:03:46;;;;;;;0.43;0.43;;;;;;;0.65;89.00;94586.88;5095206;28;20052;-73
2021/01/23 01:06:12;;;;;;;0.30;0.30;;;;;;;0.62;89.11;94580.34;5094878;28;20036;-72
2021/01/23 01:08:39;;;;;;;0.40;0.40;;;;;;;0.57;89.30;94586.13;5095068;28;20048;-72
2021/01/23 01:11:07;;;;;;;0.73;0.60;;;;;;;0.54;89.21;94593.47;5095556;28;20043;-72
2021/01/23 01:13:33;;;;;;;0.25;0.25;;;;;;;0.54;89.44;94591.66;5095611;28;20476;-72
2021/01/23 01:15:59;;;;;;;0.30;0.30;;;;;;;0.60;89.47;94592.66;5095600;28;20476;-72
2021/01/23 01:18:25;;;;;;;0.38;0.38;;;;;;;0.67;89.43;94603.72;5095027;28;20055;-72
2021/01/23 01:20:51;;;;;;;0.73;0.55;;;;;;;0.73;89.44;94615.06;5095473;28;20043;-72
2021/01/23 01:23:18;;;;;;;0.40;0.40;;;;;;;0.78;89.31;94612.69;5094451;28;20056;-72
2021/01/23 01:25:44;;;;;;;0.70;0.70;;;;;;;0.77;89.05;94618.81;5077623;28;20484;-72
2021/01/23 01:28:10;;;;;;;0.55;0.50;;;;;;;0.78;89.14;94635.91;5095391;28;20407;-72
2021/01/23 01:30:36;;;;;;;0.55;0.55;;;;;;;0.78;89.06;94638.47;5095558;28;20048;-72
2021/01/23 01:33:03;;;;;;;0.52;0.52;;;;;;;0.72;88.94;94645.22;5077568;28;20384;-72
2021/01/23 01:35:29;;;;;;;0.68;0.60;;;;;;;0.69;89.10;94640.44;5093879;28;20114;-72
2021/01/23 01:37:56;;;;;;;0.73;0.50;;;;;;;0.68;89.12;94658.72;5076898;28;20472;-72
2021/01/23 01:40:22;;;;;;;0.60;0.60;;;;;;;0.70;89.38;94660.09;5094822;28;20028;-72
2021/01/23 01:42:48;;;;;;;0.70;0.70;;;;;;;0.69;89.14;94658.50;5094436;28;20051;-73
2021/01/23 01:45:16;;;;;;;0.50;0.50;;;;;;;0.70;89.30;94665.25;5094519;28;20392;-72
2021/01/23 01:47:42;;;;;;;0.75;0.70;;;;;;;0.72;89.44;94670.22;5095043;28;20039;-72
2021/01/23 01:50:09;;;;;;;0.60;0.60;;;;;;;0.75;89.40;94675.75;5095298;28;20048;-72
2021/01/23 01:52:36;;;;;;;0.68;0.68;;;;;;;0.80;89.41;94667.44;5094569;28;20036;-72
2021/01/23 01:55:03;;;;;;;0.80;0.80;;;;;;;0.84;89.14;94662.66;5095028;28;20036;-72
2021/01/23 01:57:29;;;;;;;0.70;0.70;;;;;;;0.85;89.08;94683.09;5094897;28;20055;-72
2021/01/23 01:59:56;;;;;;;0.60;0.55;;;;;;;0.86;89.19;94679.53;5094322;28;20491;-72
2021/01/23 02:02:43;;;;;;;0.98;0.95;;;;;;;0.86;88.79;94689.06;5095218;28;20051;-72
2021/01/23 02:05:48;;;;;;;1.25;1.15;;;;;;;0.81;89.05;94695.59;5076686;28;20036;-72
2021/01/23 02:08:20;;;;;;;1.30;1.20;;;;;;;0.84;88.91;94703.94;5042745;28;20411;-72
2021/01/23 02:11:31;;;;;;;1.05;0.98;;;;;;;0.89;89.21;94712.69;5093532;28;20461;-73
2021/01/23 02:14:21;;;;;;;1.10;1.00;;;;;;;0.95;89.13;94706.72;5074879;28;20040;-72
2021/01/23 02:16:51;;;;;;;1.50;1.13;;;;;;;1.01;88.94;94715.47;5062255;28;20047;-72
2021/01/23 02:19:17;;;;;;;3.33;1.35;;;;;;;1.04;88.84;94729.75;5093909;28;20039;-73
2021/01/23 02:22:08;;;;;;;1.40;1.30;;;;;;;1.08;88.68;94723.97;5081464;28;20388;-72
2021/01/23 02:24:34;;;;;;;1.85;1.20;;;;;;;1.10;88.79;94727.16;5093903;28;20039;-72
2021/01/23 02:27:17;;;;;;;1.60;1.50;;;;;;;1.12;88.45;94740.66;5094552;28;20480;-73
2021/01/23 02:29:57;;;;;;;1.52;1.42;;;;;;;1.08;88.41;94730.94;5094425;28;20046;-72
2021/01/23 02:32:28;;;;;;;1.50;1.40;;;;;;;1.06;88.24;94731.13;5094158;28;20040;-73
2021/01/23 02:34:57;;;;;;;1.63;1.52;;;;;;;1.05;88.53;94737.28;5093085;28;20040;-73
2021/01/23 02:37:24;;;;;;;1.40;1.30;;;;;;;1.07;88.70;94737.06;5093549;28;20036;-73
2021/01/23 02:39:52;;;;;;;1.90;1.75;;;;;;;1.10;88.42;94741.84;5094009;28;20028;-73
2021/01/23 02:42:18;;;;;;;1.55;1.45;;;;;;;1.09;88.22;94753.16;5093230;28;20048;-72
2021/01/23 02:44:44;;;;;;;1.55;1.45;;;;;;;1.05;88.07;94752.78;5094148;28;20039;-73
2021/01/23 02:47:11;;;;;;;1.33;1.23;;;;;;;1.01;88.19;94761.91;5093674;28;20047;-73
2021/01/23 02:49:37;;;;;;;1.15;1.05;;;;;;;0.97;88.25;94771.03;5075869;28;20039;-73
2021/01/23 02:52:30;;;;;;;1.15;1.05;;;;;;;0.93;88.25;94765.47;5092977;28;20048;-73
2021/01/23 02:55:05;;;;;;;0.85;0.85;;;;;;;0.95;88.39;94762.72;5093121;28;20067;-73
2021/01/23 02:57:32;;;;;;;0.80;0.80;;;;;;;0.99;88.42;94776.81;5094298;28;20043;-72
2021/01/23 03:00:04;;;;;;;0.90;0.90;;;;;;;1.02;88.43;94786.72;5074434;28;20480;-72
2021/01/23 03:02:34;;;;;;;1.15;0.80;;;;;;;1.05;88.44;94777.78;5079076;28;20062;-72
2021/01/23 03:05:01;;;;;;;0.77;0.60;;;;;;;1.08;88.52;94787.72;5093371;28;20044;-73
2021/01/23 03:07:29;;;;;;;0.65;0.57;;;;;;;1.08;88.17;94796.25;5074935;28;20048;-72
2021/01/23 03:09:55;;;;;;;1.20;0.80;;;;;;;1.02;87.87;94802.19;5092978;28;20492;-72
2021/01/23 03:12:21;;;;;;;0.80;0.80;;;;;;;0.97;88.00;94802.81;5092779;28;20040;-72
2021/01/23 03:14:47;;;;;;;0.80;0.80;;;;;;;0.90;87.88;94802.00;5094079;28;20102;-72
2021/01/23 03:17:14;;;;;;;1.00;1.00;;;;;;;0.84;88.14;94812.31;5092469;28;20476;-73
2021/01/23 03:19:40;;;;;;;3.35;1.30;;;;;;;0.82;88.42;94804.78;5093654;28;20047;-72
2021/01/23 03:22:06;;;;;;;1.30;1.20;;;;;;;0.87;88.63;94809.34;5092721;28;20373;-73
2021/01/23 03:24:32;;;;;;;1.20;1.10;;;;;;;0.90;88.67;94809.72;5092284;28;20048;-73
2021/01/23 03:26:58;;;;;;;1.70;1.60;;;;;;;0.92;88.46;94823.22;5093371;28;20145;-72
2021/01/23 03:29:25;;;;;;;1.92;1.50;;;;;;;0.90;88.61;94824.44;5092332;28;20051;-73
2021/01/23 03:31:51;;;;;;;1.42;1.33;;;;;;;0.92;88.63;94828.38;5092738;28;20496;-72
2021/01/23 03:34:17;;;;;;;1.30;1.20;;;;;;;0.96;88.70;94827.00;5092338;28;20499;-72
2021/01/23 03:36:44;;;;;;;1.30;1.20;;;;;;;1.02;88.60;94836.53;5092837;28;20415;-73
2021/01/23 03:39:10;;;;;;;1.30;1.20;;;;;;;1.06;88.50;94834.38;5093286;28;20028;-72
2021/01/23 03:41:37;;;;;;;1.23;1.13;;;;;;;1.09;88.25;94840.91;5092565;28;20036;-72
2021/01/23 03:44:04;;;;;;;1.48;1.20;;;;;;;1.11;88.15;94838.94;5093037;28;20043;-73
2021/01/23 03:46:31;;;;;;;3.88;1.35;;;;;;;1.11;88.11;94844.88;5092414;28;20052;-73
2021/01/23 03:48:57;;;;;;;2.00;1.23;;;;;;;1.08;87.94;94844.50;5092254;28;20044;-72
2021/01/23 03:51:23;;;;;;;1.38;1.27;;;;;;;1.07;87.85;94842.91;5092365;28;20044;-72
2021/01/23 03:53:49;;;;;;;1.30;1.20;;;;;;;1.10;88.08;94847.69;5092735;28;20056;-73
2021/01/23 03:56:16;;;;;;;1.65;1.55;;;;;;;1.13;88.26;94852.44;5092001;28;20044;-72
2021/01/23 03:58:42;;;;;;;1.20;1.20;;;;;;;1.15;88.14;94851.25;5092556;28;20044;-73
2021/01/23 04:01:08;;;;;;;1.60;1.50;;;;;;;1.18;87.93;94848.28;5092950;28;20032;-72
2021/01/23 04:03:34;;;;;;;1.95;1.75;;;;;;;1.21;87.88;94857.41;5095396;28;20400;-72
2021/01/23 04:06:01;;;;;;;2.08;1.83;;;;;;;1.23;88.02;94857.22;5096320;28;20106;-73
2021/01/23 04:08:27;;;;;;;1.88;1.50;;;;;;;1.25;87.65;94863.75;5096108;28;20048;-73
2021/01/23 04:10:53;;;;;;;3.80;1.70;;;;;;;1.27;87.82;94866.16;5096304;28;20040;-73
2021/01/23 04:13:19;;;;;;;3.22;2.25;;;;;;;1.28;87.54;94867.72;5096145;28;20048;-73
2021/01/23 04:15:46;;;;;;;1.73;1.63;;;;;;;1.27;87.68;94871.31;5096976;28;20377;-73
2021/01/23 04:18:12;;;;;;;2.70;2.10;;;;;;;1.29;87.69;94871.91;5079131;28;20032;-73
2021/01/23 04:20:38;;;;;;;2.22;1.70;;;;;;;1.29;87.61;94867.53;5096056;28;20400;-73
2021/01/23 04:23:05;;;;;;;1.70;1.60;;;;;;;1.30;87.59;94871.72;5095984;28;20404;-73
2021/01/23 04:25:31;;;;;;;3.47;1.95;;;;;;;1.30;87.44;94869.16;5096351;28;20408;-73
2021/01/23 04:27:58;;;;;;;2.75;1.90;;;;;;;1.29;87.20;94867.53;5096738;28;20044;-73
2021/01/23 04:30:24;;;;;;;2.22;1.42;;;;;;;1.28;87.05;94873.72;5097236;28;20051;-73
2021/01/23 04:32:51;;;;;;;1.50;1.40;;;;;;;1.25;87.33;94874.09;5095835;28;20376;-73
2021/01/23 04:35:17;;;;;;;2.83;1.35;;;;;;;1.25;87.33;94868.16;5077206;28;20044;-73
2021/01/23 04:37:44;;;;;;;1.83;1.38;;;;;;;1.28;87.47;94875.47;5095337;28;20048;-73
2021/01/23 04:40:11;;;;;;;2.25;1.50;;;;;;;1.28;87.26;94862.56;5096754;28;20043;-73
2021/01/23 04:42:42;;;;;;;3.45;1.52;;;;;;;1.26;87.01;94873.13;5095339;28;20070;-73
2021/01/23 04:45:10;;;;;;;1.55;1.45;;;;;;;1.24;87.15;94875.09;5095440;28;20055;-73
2021/01/23 04:47:37;;;;;;;1.95;1.40;;;;;;;1.24;87.07;94874.28;5095168;28;20052;-73
2021/01/23 04:50:06;;;;;;;3.67;1.50;;;;;;;1.25;87.15;94878.47;5096062;28;20032;-73
2021/01/23 04:52:39;;;;;;;3.28;1.58;;;;;;;1.26;87.17;94873.13;5096698;28;20039;-73
2021/01/23 04:55:08;;;;;;;1.80;1.60;;;;;;;1.28;87.06;94867.72;5096363;28;20043;-73
2021/01/23 04:57:34;;;;;;;1.75;1.55;;;;;;;1.27;86.92;94866.94;5096010;28;20290;-73
2021/01/23 05:00:00;;;;;;;2.15;1.48;;;;;;;1.29;87.04;94869.34;5095358;28;20044;-73
2021/01/23 05:02:26;;;;;;;1.75;1.55;;;;;;;1.28;86.88;94865.97;5095761;28;20036;-73
2021/01/23 05:04:57;;;;;;;1.67;1.58;;;;;;;1.28;86.77;94862.56;5095583;28;20044;-73
2021/01/23 05:07:31;;;;;;;1.60;1.50;;;;;;;1.26;86.85;94869.72;5077236;28;20395;-73
2021/01/23 05:10:11;;;;;;;1.40;1.30;;;;;;;1.25;86.66;94861.19;5082417;28;20578;-73
2021/01/23 05:12:42;;;;;;;2.85;1.70;;;;;;;1.24;86.76;94864.78;5095687;28;20051;-73
2021/01/23 05:15:18;;;;;;;5.03;2.20;;;;;;;1.21;86.55;94858.19;5082640;28;20036;-73
2021/01/23 05:18:06;;;;;;;4.22;1.77;;;;;;;1.14;86.47;94865.16;5094917;28;20055;-73
2021/01/23 05:20:39;;;;;;;3.72;1.70;;;;;;;1.10;86.55;94869.13;5094755;28;20055;-73
2021/01/23 05:23:20;;;;;;;2.00;1.40;;;;;;;1.06;86.67;94867.13;5095890;28;20044;-73
2021/01/23 05:25:54;;;;;;;4.28;1.70;;;;;;;1.04;86.62;94869.91;5094700;28;20511;-73
2021/01/23 05:28:26;;;;;;;;;;;;;;;1.06;86.77;94872.31;5094518;28;20071;-73
2021/01/23 05:30:52;;;;;;;2.72;1.73;;;;;;;1.06;86.79;94869.72;5095048;28;20293;-73
2021/01/23 05:33:24;;;;;;;3.13;1.73;;;;;;;1.08;86.83;94878.06;5094091;28;20040;-73
2021/01/23 05:36:05;;;;;;;3.83;1.77;;;;;;;1.06;86.57;94883.41;5095545;28;20392;-73
2021/01/23 05:38:32;;;;;;;2.58;1.85;;;;;;;1.02;86.36;94884.78;5095355;28;20039;-73
2021/01/23 05:41:09;;;;;;;2.17;1.98;;;;;;;1.00;86.41;94887.56;5094716;28;20044;-73
2021/01/23 05:43:41;;;;;;;2.67;2.08;;;;;;;0.98;86.42;94881.81;5094845;28;20047;-73
2021/01/23 05:46:11;;;;;;;2.25;2.03;;;;;;;0.93;86.26;94889.34;5094137;28;20474;-73
2021/01/23 05:48:46;;;;;;;2.35;2.15;;;;;;;0.84;86.05;94880.22;5094633;28;20051;-73
2021/01/23 05:51:13;;;;;;;5.85;2.03;;;;;;;0.80;86.55;94882.38;5094313;28;20054;-73
2021/01/23 05:53:41;;;;;;;3.13;2.20;;;;;;;0.80;86.66;94874.66;5093997;28;20036;-73
2021/01/23 05:56:07;;;;;;;2.25;2.05;;;;;;;0.85;86.88;94876.63;5095393;28;20457;-73
2021/01/23 05:58:35;;;;;;;4.82;2.42;;;;;;;0.88;86.48;94883.19;5094885;28;20044;-73
2021/01/23 06:01:07;;;;;;;2.72;2.38;;;;;;;0.83;86.69;94872.66;5091549;28;20496;-73
2021/01/23 06:03:50;;;;;;;3.10;2.25;;;;;;;0.85;86.51;94874.06;5094914;28;20055;-73
2021/01/23 06:06:16;;;;;;;2.33;2.10;;;;;;;0.84;86.64;94876.81;5094415;28;20396;-73
2021/01/23 06:08:45;;;;;;;4.35;2.47;;;;;;;0.85;86.57;94876.63;5094696;28;20043;-73
2021/01/23 06:11:20;;;;;;;2.35;2.15;;;;;;;0.88;86.47;94881.38;5094583;28;20505;-73
2021/01/23 06:13:48;;;;;;;2.85;2.25;;;;;;;0.91;86.68;94886.16;5083796;28;20032;-73
2021/01/23 06:16:33;;;;;;;4.68;2.50;;;;;;;0.94;86.52;94880.59;5094402;28;20043;-73
2021/01/23 06:18:59;;;;;;;;;;;;;;;0.93;86.29;94886.78;5094040;28;20039;-74
2021/01/23 06:21:48;;;;;;;3.80;2.38;;;;;;;0.95;86.35;94878.84;5094680;28;19915;-73
2021/01/23 06:24:17;;;;;;;3.15;2.50;;;;;;;0.95;86.34;94868.53;5083850;28;20040;-73
2021/01/23 06:26:52;;;;;;;4.13;2.67;;;;;;;0.97;86.26;94876.84;5094063;28;20480;-73
2021/01/23 06:29:34;;;;;;;5.85;2.40;;;;;;;0.97;86.23;94874.28;5094363;28;20036;-73
2021/01/23 06:32:21;;;;;;;4.18;2.20;;;;;;;0.97;86.07;94875.06;5094434;28;20043;-73
2021/01/23 06:34:53;;;;;;;4.65;2.47;;;;;;;0.96;85.90;94876.03;5072445;28;20040;-73
2021/01/23 06:37:37;;;;;;;2.55;2.35;;;;;;;0.92;86.00;94877.44;5094122;28;20035;-73
2021/01/23 06:40:08;;;;;;;5.90;2.58;;;;;;;0.89;85.96;94880.41;5094213;28;20056;-73
2021/01/23 06:42:44;;;;;;;5.30;3.03;;;;;;;0.84;85.72;94882.78;5093621;28;20036;-73
2021/01/23 06:45:17;;;;;;;2.92;2.33;;;;;;;0.81;85.88;94880.59;5093206;28;20053;-73
2021/01/23 06:47:46;;;;;;;4.57;3.15;;;;;;;0.81;85.97;94880.59;5093858;28;20039;-74
2021/01/23 06:50:24;;;;;;;4.15;2.90;;;;;;;0.82;85.97;94884.78;5093547;28;20040;-73
2021/01/23 06:52:50;;;;;;;6.63;2.95;;;;;;;0.84;86.04;94884.56;5081449;28;20498;-73
2021/01/23 06:55:40;;;;;;;4.38;3.22;;;;;;;0.88;85.69;94885.75;5075071;28;20036;-73
2021/01/23 06:58:18;;;;;;;4.65;3.53;;;;;;;0.86;85.86;94892.91;5093291;28;20048;-73
2021/01/23 07:00:52;;;;;;;5.13;3.22;;;;;;;0.88;86.00;94896.09;5094047;28;20036;-73
2021/01/23 07:03:19;;;;;;;4.82;3.80;;;;;;;0.88;85.99;94888.34;5092969;28;20044;-74
2021/01/23 07:06:00;;;;;;;4.80;3.75;;;;;;;0.92;85.92;94884.38;5092740;28;20048;-74
2021/01/23 07:08:31;;;;;;;4.43;3.47;;;;;;;0.93;85.94;94886.00;5064305;28;20499;-73
2021/01/23 07:11:21;;;;;;;4.88;3.80;;;;;;;0.96;85.84;94893.31;5093224;28;20480;-74
2021/01/23 07:13:59;;;;;;;5.07;3.50;;;;;;;0.96;85.66;94883.78;5085238;28;20048;-74
2021/01/23 07:16:26;;;;;;;5.00;4.47;;;;;;;0.95;85.70;94889.16;5093851;28;20028;-73
2021/01/23 07:18:57;;;;;;;6.03;4.30;;;;;;;0.95;85.90;94894.31;5092568;28;20051;-73
2021/01/23 07:21:25;;;;;;;7.15;5.38;;;;;;;0.96;85.75;94883.78;5093415;28;20472;-74
2021/01/23 07:23:53;;;;;;;6.75;5.28;;;;;;;0.96;85.79;94881.22;5092497;28;20071;-73
2021/01/23 07:26:20;;;;;;;6.57;5.03;;;;;;;0.98;85.99;94878.44;5092447;28;20051;-74
2021/01/23 07:28:53;;;;;;;7.90;5.75;;;;;;;0.98;85.62;94881.81;5092991;28;20047;-74
2021/01/23 07:31:31;;;;;;;6.82;5.47;;;;;;;1.00;85.40;94884.19;5076147;28;20036;-74
2021/01/23 07:33:59;;;;;;;8.20;5.22;;;;;;;1.00;85.50;94876.47;5092415;28;20039;-74
2021/01/23 07:36:33;;;;;;;8.10;5.32;;;;;;;1.03;85.30;94870.91;5093729;28;20041;-74
2021/01/23 07:39:06;;;;;;;7.38;4.60;;;;;;;1.05;85.46;94870.69;5081335;28;20048;-74
2021/01/23 07:41:37;;;;;;;7.25;5.53;;;;;;;1.07;85.13;94872.13;5092817;28;20040;-74
2021/01/23 07:44:08;;;;;;;6.20;5.43;;;;;;;1.10;85.11;94873.50;5079558;28;20456;-73
2021/01/23 07:46:36;;;;;;;6.30;5.22;;;;;;;1.12;85.13;94868.94;5093354;28;20043;-74
2021/01/23 07:49:04;;;;;;;7.75;5.53;;;;;;;1.13;84.93;94871.28;5092034;28;20040;-74
2021/01/23 07:51:31;;;;;;;8.45;5.75;;;;;;;1.15;84.86;94866.72;5092287;28;20051;-74
2021/01/23 07:54:11;;;;;;;9.55;5.90;;;;;;;1.17;84.43;94863.97;5092581;28;20040;-74
2021/01/23 07:56:49;;;;;;;7.65;5.57;;;;;;;1.20;84.69;94861.00;5080245;28;20056;-74
2021/01/23 07:59:16;;;;;;;7.78;5.45;;;;;;;1.24;84.68;94851.03;5092575;28;20496;-73
2021/01/23 08:01:42;;;;;;;8.50;6.75;;;;;;;1.26;84.65;94852.47;5091950;28;20048;-74
2021/01/23 08:04:30;;;;;;;7.72;6.03;;;;;;;1.33;84.17;94847.28;5092608;28;20056;-74
2021/01/23 08:07:19;;;;;;;10.05;6.25;;;;;;;1.38;84.28;94844.88;5092339;28;20044;-74
2021/01/23 08:09:46;;;;;;;8.23;6.15;;;;;;;1.44;84.32;94843.31;5091621;28;20047;-73
2021/01/23 08:12:19;;;;;;;12.60;7.40;;;;;;;1.51;84.23;94852.66;5091762;28;20055;-74
2021/01/23 08:14:55;;;;;;;9.45;6.35;;;;;;;1.57;83.96;94851.81;5078969;28;20055;-74
2021/01/23 08:17:46;;;;;;;10.52;6.50;;;;;;;1.65;83.52;94848.25;5091679;28;20047;-74
2021/01/23 08:20:33;;;;;;;9.63;6.55;;;;;;;1.69;83.37;94843.47;5082855;28;20044;-74
2021/01/23 08:23:06;;;;;;;10.25;5.72;;;;;;;1.67;83.23;94841.09;5093267;28;20032;-74
2021/01/23 08:25:34;;;;;;;7.13;5.22;;;;;;;1.66;83.45;94842.09;5092921;28;20067;-74
2021/01/23 08:28:01;;;;;;;6.85;4.78;;;;;;;1.68;83.40;94847.84;5092185;28;20081;-74
2021/01/23 08:30:28;;;;;;;10.40;5.95;;;;;;;1.65;83.05;94837.91;5092896;28;20036;-74
2021/01/23 08:32:54;;;;;;;6.65;5.18;;;;;;;1.61;83.24;94842.66;5092878;28;20036;-74
2021/01/23 08:35:22;;;;;;;7.53;5.60;;;;;;;1.61;83.60;94840.09;5092361;28;20365;-74
2021/01/23 08:37:49;;;;;;;8.98;5.38;;;;;;;1.65;83.59;94840.50;5091786;28;20055;-74
2021/01/23 08:40:20;;;;;;;9.98;5.65;;;;;;;1.68;83.17;94837.53;5092552;28;20032;-74
2021/01/23 08:42:47;;;;;;;7.50;5.25;;;;;;;1.67;83.32;94833.34;5092046;28;20052;-73
2021/01/23 08:45:14;;;;;;;7.43;5.63;;;;;;;1.64;83.05;94841.50;5091482;28;20048;-74
2021/01/23 08:47:41;;;;;;;6.45;5.60;;;;;;;1.63;83.20;94822.59;5092556;28;20044;-73
2021/01/23 08:50:08;;;;;;;12.85;6.25;;;;;;;1.66;83.41;94828.34;5093140;28;20067;-74
2021/01/23 08:52:35;;;;;;;6.60;5.28;;;;;;;1.63;83.12;94824.38;5095033;28;20048;-73
2021/01/23 08:55:02;;;;;;;6.10;4.55;;;;;;;1.69;83.46;94828.75;5077763;28;20062;-74
2021/01/23 08:57:29;;;;;;;8.32;5.07;;;;;;;1.72;82.95;94828.38;5078647;28;20051;-74
2021/01/23 08:59:55;;;;;;;7.40;5.15;;;;;;;1.68;82.79;94826.38;5096333;28;20047;-74
2021/01/23 09:02:21;;;;;;;9.30;4.80;;;;;;;1.68;82.89;94827.19;5095852;28;20047;-74
2021/01/23 09:04:47;;;;;;;6.72;4.88;;;;;;;1.76;83.02;94826.16;5096490;28;20047;-73
2021/01/23 09:07:14;;;;;;;6.70;4.53;;;;;;;1.78;82.51;94822.38;5095365;28;20472;-74
2021/01/23 09:09:40;;;;;;;5.35;4.65;;;;;;;1.74;82.50;94823.78;5077414;28;20039;-73
2021/01/23 09:12:07;;;;;;;7.05;4.65;;;;;;;1.75;82.28;94816.81;5077665;28;20036;-74
2021/01/23 09:14:33;;;;;;;9.27;4.20;;;;;;;1.75;82.46;94824.56;5094892;28;20055;-74
2021/01/23 09:16:59;;;;;;;8.80;4.22;;;;;;;1.78;82.52;94809.44;5095730;28;20040;-74
2021/01/23 09:19:26;;;;;;;5.22;3.70;;;;;;;1.85;82.59;94808.63;5095501;28;20051;-74
2021/01/23 09:21:52;;;;;;;7.25;4.38;;;;;;;1.95;82.63;94799.47;5095156;28;20495;-74
2021/01/23 09:24:18;;;;;;;7.28;3.90;;;;;;;2.01;82.32;94803.00;5095182;28;20047;-74
2021/01/23 09:26:45;;;;;;;11.43;4.57;;;;;;;1.99;82.05;94805.00;5094363;28;20059;-74
2021/01/23 09:29:12;;;;;;;8.40;4.13;;;;;;;2.02;82.10;94807.19;5095501;28;20059;-74
2021/01/23 09:31:39;;;;;;;7.78;4.40;;;;;;;2.03;81.75;94808.78;5094354;28;20063;-74
2021/01/23 09:34:06;;;;;;;6.20;4.07;;;;;;;2.06;81.93;94795.47;5095584;28;20036;-74
2021/01/23 09:36:33;;;;;;;5.95;4.30;;;;;;;2.11;81.84;94790.44;5068124;28;20067;-74
2021/01/23 09:38:59;;;;;;;6.70;4.57;;;;;;;2.16;81.86;94793.22;5095629;28;20384;-74
2021/01/23 09:41:26;;;;;;;5.85;4.10;;;;;;;2.27;81.79;94796.13;5095708;28;20044;-74
2021/01/23 09:43:52;;;;;;;6.00;4.20;;;;;;;2.37;81.56;94792.13;5094517;28;20032;-74
2021/01/23 09:46:18;;;;;;;5.63;3.85;;;;;;;2.44;81.55;94800.63;5094119;28;20043;-74
2021/01/23 09:48:45;;;;;;;7.30;3.88;;;;;;;2.54;81.55;94794.22;5093979;28;20067;-74
2021/01/23 09:51:12;;;;;;;4.72;4.00;;;;;;;2.59;81.17;94794.41;5095510;28;20028;-73
2021/01/23 09:53:38;;;;;;;5.28;4.43;;;;;;;2.60;81.09;94791.59;5077059;28;20047;-73
2021/01/23 09:56:05;;;;;;;7.22;4.20;;;;;;;2.64;80.98;94786.78;5094575;28;20376;-73
2021/01/23 09:58:32;;;;;;;7.57;4.78;;;;;;;2.64;80.71;94781.59;5075829;28;20060;-74
2021/01/23 10:00:58;;;;;;;5.43;4.13;;;;;;;2.67;80.62;94777.81;5094797;28;20044;-74
2021/01/23 10:03:24;;;;;;;5.22;4.43;;;;;;;2.67;80.58;94770.03;5095353;28;20067;-73
2021/01/23 10:05:50;;;;;;;6.95;4.85;;;;;;;2.68;80.50;94775.00;5079927;28;20411;-74
2021/01/23 10:08:17;;;;;;;7.47;4.90;;;;;;;2.61;80.28;94775.06;5094714;28;20043;-74
2021/01/23 10:10:43;;;;;;;7.75;4.93;;;;;;;2.55;80.17;94764.75;5094532;28;20601;-73
2021/01/23 10:13:09;;;;;;;7.47;5.53;;;;;;;2.55;80.45;94769.94;5076602;28;20058;-74
2021/01/23 10:15:35;;;;;;;7.38;5.15;;;;;;;2.60;80.83;94772.69;5094694;28;20036;-73
2021/01/23 10:18:03;;;;;;;8.82;4.90;;;;;;;2.64;80.74;94761.69;5094528;28;20047;-73
2021/01/23 10:20:29;;;;;;;10.00;5.15;;;;;;;2.70;80.28;94764.47;5093968;28;20032;-73
2021/01/23 10:22:55;;;;;;;7.28;5.03;;;;;;;2.74;80.44;94761.25;5093462;28;20047;-73
2021/01/23 10:25:22;;;;;;;7.30;4.57;;;;;;;2.81;80.19;94756.81;5076024;28;20093;-73
2021/01/23 10:27:50;;;;;;;5.82;4.60;;;;;;;2.78;79.75;94749.47;5076401;28;20051;-73
2021/01/23 10:30:17;;;;;;;10.75;5.35;;;;;;;2.63;79.69;94748.97;5093335;28;20396;-73
2021/01/23 10:32:43;;;;;;;5.90;4.55;;;;;;;2.49;79.31;94747.47;5077280;28;20043;-73
2021/01/23 10:35:10;;;;;;;7.30;4.63;;;;;;;2.48;79.72;94749.28;5093961;28;20028;-73
2021/01/23 10:37:37;;;;;;;10.45;5.55;;;;;;;2.54;80.24;94740.69;5094223;28;20067;-73
2021/01/23 10:40:05;;;;;;;10.98;5.50;;;;;;;2.54;79.90;94729.53;5093940;28;20036;-73
2021/01/23 10:42:32;;;;;;;12.10;5.95;;;;;;;2.51;80.21;94722.19;5076376;28;20043;-73
2021/01/23 10:44:59;;;;;;;8.57;4.97;;;;;;;2.59;80.48;94716.75;5094169;28;20040;-73
2021/01/23 10:47:26;;;;;;;9.10;4.95;;;;;;;2.72;80.31;94706.31;5092988;28;20040;-74
2021/01/23 10:49:52;;;;;;;9.02;5.63;;;;;;;2.78;80.25;94700.28;5093274;28;20048;-73
2021/01/23 10:52:18;;;;;;;8.20;6.07;;;;;;;2.76;79.45;94699.69;5093333;28;20055;-73
2021/01/23 10:54:44;;;;;;;9.90;6.28;;;;;;;2.78;79.38;94691.72;5092654;28;20360;-73
2021/01/23 10:57:11;;;;;;;7.10;5.53;;;;;;;2.82;79.81;94690.31;5094199;28;20469;-73
2021/01/23 10:59:37;;;;;;;7.57;5.63;;;;;;;2.99;80.18;94691.34;5093263;28;20460;-73
2021/01/23 11:02:04;;;;;;;8.63;5.53;;;;;;;3.09;79.60;94695.22;5092929;28;20044;-73
2021/01/23 11:04:30;;;;;;;7.47;5.18;;;;;;;3.18;79.57;94686.97;5075031;28;20048;-73
2021/01/23 11:06:56;;;;;;;8.65;5.60;;;;;;;3.21;78.86;94689.16;5093775;28;20035;-73
2021/01/23 11:09:22;;;;;;;8.70;5.28;;;;;;;3.19;78.42;94691.16;5088922;28;20048;-73
2021/01/23 11:11:49;;;;;;;7.72;5.18;;;;;;;3.26;78.62;94675.53;5087750;28;20048;-73
2021/01/23 11:14:15;;;;;;;5.90;5.30;;;;;;;3.49;79.08;94679.28;5092502;28;20055;-73
2021/01/23 11:16:41;;;;;;;8.45;5.60;;;;;;;3.75;79.36;94686.75;5091921;28;20392;-73
2021/01/23 11:19:07;;;;;;;6.88;5.93;;;;;;;3.91;78.89;94674.19;5087337;28;20052;-73
2021/01/23 11:21:35;;;;;;;8.10;5.88;;;;;;;3.98;78.00;94680.88;5078101;28;20044;-72
2021/01/23 11:24:01;;;;;;;6.85;5.70;;;;;;;4.06;78.33;94677.19;5072692;28;20049;-72
2021/01/23 11:26:28;;;;;;;6.80;5.75;;;;;;;4.04;77.39;94671.41;5081566;28;20056;-73
2021/01/23 11:28:54;;;;;;;8.68;5.60;;;;;;;3.89;77.32;94671.03;5067788;28;20048;-73
2021/01/23 11:31:22;;;;;;;9.02;6.47;;;;;;;3.74;76.97;94667.03;5086826;28;20048;-73
2021/01/23 11:33:48;;;;;;;8.85;6.40;;;;;;;3.70;77.58;94665.88;5089605;28;20056;-73
2021/01/23 11:36:14;;;;;;;8.48;6.05;;;;;;;3.86;78.05;94661.88;5087442;28;20404;-73
2021/01/23 11:38:40;;;;;;;7.85;5.22;;;;;;;3.89;77.54;94660.66;5083327;28;20049;-74
2021/01/23 11:41:07;;;;;;;8.77;5.30;;;;;;;3.89;77.66;94651.06;5056607;28;20457;-73
2021/01/23 11:43:33;;;;;;;7.13;4.63;;;;;;;3.86;77.52;94644.53;5090576;28;20043;-73
2021/01/23 11:46:03;;;;;;;6.35;4.47;;;;;;;3.86;77.59;94641.94;5090859;28;20055;-73
2021/01/23 11:48:30;;;;;;;9.32;4.60;;;;;;;3.91;77.71;94640.50;5089947;28;20052;-73
2021/01/23 11:50:58;;;;;;;8.93;4.57;;;;;;;3.93;77.53;94638.47;5076799;28;20047;-73